Arklow Spray — C6VK8 — position and weather

sailwx.info

Track history (hours):
 
Tides and Currents Weather Stations Pressure Air Temp Water Temp Dewpoint Dewpoint Depression Visibility Wind Speed Wind Dir Waves Ship Positions

Arklow Spray

Last reported at 2017-Mar-28 09:33 UTC. Time now 2017-Mar-28 10:13 UTC.
Position N 51°34' W 002°58'.

Length 90 m; draft 3.1 m.

MMSI: 309914000.

Date/timePositionNaut miles runAvg speedWind from/ knotsBaromVisibWave heightAir tempDewpointWater temp
2017-Mar-28 09:33N 51°34' W 002°58'0 0.0
2017-Mar-28 08:33N 51°34' W 002°58'0 0.0
2017-Mar-28 07:33N 51°34' W 002°58'2 1.6
2017-Mar-28 06:18N 51°32' W 002°58'  
2017-Mar-25 22:16N 51°30' W 004°51'26 9.7
2017-Mar-25 19:33N 51°34' W 005°32'10 9.5
2017-Mar-25 18:33N 51°36' W 005°47'1010.0
2017-Mar-25 17:33N 51°39' W 006°03'1010.4
2017-Mar-25 16:33N 51°46' W 006°16'1110.6
2017-Mar-25 15:33N 51°52' W 006°29'1110.6
2017-Mar-25 14:32N 51°59' W 006°42'1010.5
2017-Mar-25 13:33N 52°06' W 006°55'9 8.5
2017-Mar-25 12:31N 52°14' W 006°58'3 2.8
2017-Mar-25 11:32N 52°16' W 007°02'0 0.0
2017-Mar-25 10:32N 52°16' W 007°02'0 0.0
2017-Mar-25 09:33N 52°16' W 007°02'0 0.0
2017-Mar-25 08:32N 52°16' W 007°02'0 0.0
2017-Mar-25 07:33N 52°16' W 007°02'0 0.0
2017-Mar-25 06:32N 52°16' W 007°02'0 0.0
2017-Mar-25 05:32N 52°16' W 007°02'0 0.0
2017-Mar-25 04:32N 52°16' W 007°02'0 0.0
2017-Mar-25 03:32N 52°16' W 007°02'0 0.0
2017-Mar-25 02:32N 52°16' W 007°02'0 0.0
2017-Mar-25 01:32N 52°16' W 007°02'0 0.0
2017-Mar-25 00:32N 52°16' W 007°02'0 0.0
2017-Mar-24 23:32N 52°16' W 007°02'0 0.0
2017-Mar-24 22:32N 52°16' W 007°02'0 0.0
2017-Mar-24 21:32N 52°16' W 007°02'0 0.0
2017-Mar-24 20:32N 52°16' W 007°02'0 0.0
2017-Mar-24 19:26N 52°16' W 007°02'0 0.0
2017-Mar-24 18:32N 52°16' W 007°02'0 0.0
2017-Mar-24 17:32N 52°16' W 007°02'0 0.0
2017-Mar-24 16:32N 52°16' W 007°02'0 0.0
2017-Mar-24 15:32N 52°16' W 007°02'2 1.9
2017-Mar-24 14:33N 52°15' W 006°59'9 9.3
2017-Mar-24 13:33N 52°06' W 006°56'1110.3
2017-Mar-24 12:28N 51°55' W 006°50'150 7.5
2017-Mar-23 16:31N 49°56' W 004°25'29 9.7
2017-Mar-23 13:32N 49°57' W 003°41'9 9.7
2017-Mar-23 12:34N 49°58' W 003°26'1010.1
2017-Mar-23 11:34N 49°58' W 003°10'4510.7
2017-Mar-23 07:21N 49°58' W 002°00'810.2
2017-Mar-23 06:33N 49°56' W 001°48'10 9.5
2017-Mar-23 05:33N 49°53' W 001°35'9 9.0
2017-Mar-23 04:34N 49°50' W 001°21'8 8.1
2017-Mar-23 03:33N 49°47' W 001°10'9 8.8
2017-Mar-23 02:29N 49°43' W 000°57'9 9.6
2017-Mar-23 01:33N 49°40' W 000°44'1110.6
2017-Mar-23 00:34N 49°35' W 000°29'1111.0
2017-Mar-22 23:34N 49°31' W 000°13'1110.9
2017-Mar-22 22:34N 49°27' E 000°02'1212.0
2017-Mar-22 21:34N 49°26' E 000°21'10 9.9
2017-Mar-22 20:34N 49°26' E 000°36'9 6.2
2017-Mar-22 19:10N 49°28' E 000°49'  
Track history (hours):
 
Tides and Currents Weather Stations Pressure Air Temp Water Temp Dewpoint Dewpoint Depression Visibility Wind Speed Wind Dir Waves Ship Positions

Arklow Spray

Last reported at 2017-Mar-28 09:33 UTC. Time now 2017-Mar-28 10:13 UTC.
Position N 51°34' W 002°58'.

Length 90 m; draft 3.1 m.

MMSI: 309914000.

Date/timePositionNaut miles runAvg speedWind from/ knotsBaromVisibWave heightAir tempDewpointWater temp
2017-Mar-28 09:33N 51°34' W 002°58'0 0.0
2017-Mar-28 08:33N 51°34' W 002°58'0 0.0
2017-Mar-28 07:33N 51°34' W 002°58'2 1.6
2017-Mar-28 06:18N 51°32' W 002°58'  
2017-Mar-25 22:16N 51°30' W 004°51'26 9.7
2017-Mar-25 19:33N 51°34' W 005°32'10 9.5
2017-Mar-25 18:33N 51°36' W 005°47'1010.0
2017-Mar-25 17:33N 51°39' W 006°03'1010.4
2017-Mar-25 16:33N 51°46' W 006°16'1110.6
2017-Mar-25 15:33N 51°52' W 006°29'1110.6
2017-Mar-25 14:32N 51°59' W 006°42'1010.5
2017-Mar-25 13:33N 52°06' W 006°55'9 8.5
2017-Mar-25 12:31N 52°14' W 006°58'3 2.8
2017-Mar-25 11:32N 52°16' W 007°02'0 0.0
2017-Mar-25 10:32N 52°16' W 007°02'0 0.0
2017-Mar-25 09:33N 52°16' W 007°02'0 0.0
2017-Mar-25 08:32N 52°16' W 007°02'0 0.0
2017-Mar-25 07:33N 52°16' W 007°02'0 0.0
2017-Mar-25 06:32N 52°16' W 007°02'0 0.0
2017-Mar-25 05:32N 52°16' W 007°02'0 0.0
2017-Mar-25 04:32N 52°16' W 007°02'0 0.0
2017-Mar-25 03:32N 52°16' W 007°02'0 0.0
2017-Mar-25 02:32N 52°16' W 007°02'0 0.0
2017-Mar-25 01:32N 52°16' W 007°02'0 0.0
2017-Mar-25 00:32N 52°16' W 007°02'0 0.0
2017-Mar-24 23:32N 52°16' W 007°02'0 0.0
2017-Mar-24 22:32N 52°16' W 007°02'0 0.0
2017-Mar-24 21:32N 52°16' W 007°02'0 0.0
2017-Mar-24 20:32N 52°16' W 007°02'0 0.0
2017-Mar-24 19:26N 52°16' W 007°02'0 0.0
2017-Mar-24 18:32N 52°16' W 007°02'0 0.0
2017-Mar-24 17:32N 52°16' W 007°02'0 0.0
2017-Mar-24 16:32N 52°16' W 007°02'0 0.0
2017-Mar-24 15:32N 52°16' W 007°02'2 1.9
2017-Mar-24 14:33N 52°15' W 006°59'9 9.3
2017-Mar-24 13:33N 52°06' W 006°56'1110.3
2017-Mar-24 12:28N 51°55' W 006°50'150 7.5
2017-Mar-23 16:31N 49°56' W 004°25'29 9.7
2017-Mar-23 13:32N 49°57' W 003°41'9 9.7
2017-Mar-23 12:34N 49°58' W 003°26'1010.1
2017-Mar-23 11:34N 49°58' W 003°10'4510.7
2017-Mar-23 07:21N 49°58' W 002°00'810.2
2017-Mar-23 06:33N 49°56' W 001°48'10 9.5
2017-Mar-23 05:33N 49°53' W 001°35'9 9.0
2017-Mar-23 04:34N 49°50' W 001°21'8 8.1
2017-Mar-23 03:33N 49°47' W 001°10'9 8.8
2017-Mar-23 02:29N 49°43' W 000°57'9 9.6
2017-Mar-23 01:33N 49°40' W 000°44'1110.6
2017-Mar-23 00:34N 49°35' W 000°29'1111.0
2017-Mar-22 23:34N 49°31' W 000°13'1110.9
2017-Mar-22 22:34N 49°27' E 000°02'1212.0
2017-Mar-22 21:34N 49°26' E 000°21'10 9.9
2017-Mar-22 20:34N 49°26' E 000°36'9 6.2
2017-Mar-22 19:10N 49°28' E 000°49'  

Dump ship's entire track history